createdAt,value
2018-09-09T00:00:40.531Z,20.10
2018-09-09T00:03:11.602Z,20.10
2018-09-09T00:05:42.951Z,20.20
2018-09-09T00:08:14.165Z,20.40
2018-09-09T00:10:45.372Z,20.20
2018-09-09T00:13:16.351Z,20.10
2018-09-09T00:15:47.555Z,20.30
2018-09-09T00:18:18.778Z,20.20
2018-09-09T00:20:50.710Z,20.30
2018-09-09T00:23:21.998Z,20.20
2018-09-09T00:25:53.300Z,20.00
2018-09-09T00:28:24.479Z,19.70
2018-09-09T00:30:55.974Z,19.60
2018-09-09T00:33:27.075Z,19.60
2018-09-09T00:35:58.318Z,19.50
2018-09-09T00:38:29.634Z,19.70
2018-09-09T00:41:00.829Z,19.80
2018-09-09T00:43:32.044Z,19.80
2018-09-09T00:46:03.891Z,19.60
2018-09-09T00:48:34.988Z,19.50
2018-09-09T00:51:11.252Z,19.40
2018-09-09T00:53:42.844Z,19.20
2018-09-09T00:56:14.090Z,19.30
2018-09-09T00:58:45.324Z,19.30
2018-09-09T01:01:18.650Z,19.30
2018-09-09T01:03:50.159Z,19.50
2018-09-09T01:06:21.204Z,19.60
2018-09-09T01:08:52.716Z,19.50
2018-09-09T01:11:23.779Z,19.50
2018-09-09T01:13:55.074Z,19.50
2018-09-09T01:16:26.367Z,19.50
2018-09-09T01:18:57.603Z,19.30
2018-09-09T01:21:28.747Z,19.10
2018-09-09T01:23:59.993Z,18.90
2018-09-09T01:26:31.815Z,18.90
2018-09-09T01:29:02.914Z,18.70
2018-09-09T01:31:34.105Z,18.70
2018-09-09T01:34:05.283Z,18.90
2018-09-09T01:36:36.491Z,18.90
2018-09-09T01:39:10.318Z,19.00
2018-09-09T01:41:41.451Z,19.10
2018-09-09T01:44:12.850Z,19.10
2018-09-09T01:46:43.999Z,18.90
2018-09-09T01:49:15.218Z,19.10
2018-09-09T01:51:47.059Z,19.10
2018-09-09T01:54:18.223Z,19.00
2018-09-09T01:56:49.576Z,18.90
2018-09-09T01:59:20.559Z,19.00
2018-09-09T02:01:52.041Z,19.10
2018-09-09T02:04:23.172Z,19.00
2018-09-09T02:06:54.324Z,19.10
2018-09-09T02:09:25.363Z,19.10
2018-09-09T02:11:56.715Z,19.10
2018-09-09T02:14:27.894Z,19.10
2018-09-09T02:16:58.931Z,19.00
2018-09-09T02:19:31.074Z,18.90
2018-09-09T02:22:02.068Z,18.70
2018-09-09T02:24:33.307Z,18.40
2018-09-09T02:27:04.662Z,18.50
2018-09-09T02:29:36.147Z,18.70
2018-09-09T02:32:07.435Z,18.70
2018-09-09T02:34:38.890Z,18.50
2018-09-09T02:37:10.034Z,18.40
2018-09-09T02:39:41.487Z,18.40
2018-09-09T02:42:12.839Z,18.10
2018-09-09T02:44:44.183Z,17.90
2018-09-09T02:47:15.543Z,17.90
2018-09-09T02:49:46.571Z,17.90
2018-09-09T02:52:17.737Z,17.90
2018-09-09T02:54:49.008Z,18.00
2018-09-09T02:57:20.311Z,18.20
2018-09-09T02:59:51.351Z,18.10
2018-09-09T03:02:22.706Z,18.00
2018-09-09T03:04:53.909Z,17.80
2018-09-09T03:07:25.091Z,17.70
2018-09-09T03:09:56.486Z,17.60
2018-09-09T03:12:27.655Z,17.50
2018-09-09T03:14:58.653Z,17.60
2018-09-09T03:17:29.875Z,17.50
2018-09-09T03:20:00.880Z,17.70
2018-09-09T03:22:31.974Z,17.70
2018-09-09T03:25:03.511Z,17.60
2018-09-09T03:27:34.624Z,17.40
2018-09-09T03:30:05.801Z,17.40
2018-09-09T03:32:36.907Z,17.50
2018-09-09T03:35:08.116Z,17.60
2018-09-09T03:37:39.238Z,17.50
2018-09-09T03:40:10.392Z,17.50
2018-09-09T03:42:41.431Z,17.50
2018-09-09T03:45:12.588Z,17.60
2018-09-09T03:47:43.610Z,17.80
2018-09-09T03:50:14.955Z,18.00
2018-09-09T03:52:46.164Z,17.90
2018-09-09T03:55:17.496Z,17.70
2018-09-09T03:57:49.204Z,17.70
2018-09-09T04:00:20.554Z,17.70
2018-09-09T04:02:51.903Z,17.50
2018-09-09T04:05:23.110Z,17.20
2018-09-09T04:07:54.291Z,17.20
2018-09-09T04:10:25.488Z,17.20
2018-09-09T04:12:56.648Z,17.20
2018-09-09T04:15:27.980Z,17.30
2018-09-09T04:17:59.259Z,17.40
2018-09-09T04:20:30.253Z,17.30
2018-09-09T04:23:01.227Z,17.30
2018-09-09T04:25:32.473Z,17.50
2018-09-09T04:28:03.835Z,17.50
2018-09-09T04:30:35.331Z,17.50
2018-09-09T04:33:06.601Z,17.50
2018-09-09T04:35:37.594Z,17.30
2018-09-09T04:38:09.387Z,17.30
2018-09-09T04:40:40.873Z,17.30
2018-09-09T04:43:12.021Z,17.30
2018-09-09T04:45:43.161Z,17.20
2018-09-09T04:48:14.134Z,17.10
2018-09-09T04:50:45.333Z,17.00
2018-09-09T04:53:16.523Z,17.00
2018-09-09T04:55:47.645Z,17.10
2018-09-09T04:58:18.719Z,17.00
2018-09-09T05:00:49.958Z,17.20
2018-09-09T05:03:21.579Z,17.10
2018-09-09T05:05:52.695Z,17.00
2018-09-09T05:08:23.909Z,17.00
2018-09-09T05:10:55.255Z,17.10
2018-09-09T05:13:26.253Z,17.20
2018-09-09T05:15:57.435Z,17.20
2018-09-09T05:18:28.479Z,17.10
2018-09-09T05:20:59.827Z,17.10
2018-09-09T05:23:31.000Z,17.10
2018-09-09T05:26:02.080Z,17.00
2018-09-09T05:28:33.424Z,17.00
2018-09-09T05:31:04.610Z,17.00
2018-09-09T05:33:35.768Z,17.10
2018-09-09T05:36:06.861Z,16.90
2018-09-09T05:38:38.005Z,17.00
2018-09-09T05:41:09.707Z,16.90
2018-09-09T05:43:40.787Z,16.90
2018-09-09T05:46:11.988Z,16.90
2018-09-09T05:48:43.347Z,16.70
2018-09-09T05:51:14.514Z,16.70
2018-09-09T05:53:45.772Z,16.80
2018-09-09T05:56:17.483Z,16.80
2018-09-09T05:58:49.207Z,16.80
2018-09-09T06:01:20.540Z,16.80
2018-09-09T06:03:51.862Z,16.90
2018-09-09T06:06:23.105Z,17.10
2018-09-09T06:08:54.495Z,17.10
2018-09-09T06:11:26.106Z,17.10
2018-09-09T06:13:57.766Z,17.00
2018-09-09T06:16:29.115Z,17.00
2018-09-09T06:19:00.671Z,17.00
2018-09-09T06:21:31.963Z,17.00
2018-09-09T06:24:03.162Z,17.00
2018-09-09T06:26:34.402Z,17.10
2018-09-09T06:29:06.082Z,17.30
2018-09-09T06:31:37.612Z,17.50
2018-09-09T06:34:08.739Z,17.50
2018-09-09T06:36:40.403Z,17.50
2018-09-09T06:39:12.771Z,17.60
2018-09-09T06:41:44.352Z,17.80
2018-09-09T06:44:15.671Z,18.10
2018-09-09T06:46:47.087Z,17.90
2018-09-09T06:49:18.686Z,18.00
2018-09-09T06:51:50.132Z,18.10
2018-09-09T06:54:21.441Z,18.40
2018-09-09T06:56:53.235Z,18.50
2018-09-09T06:59:24.446Z,18.50
2018-09-09T07:01:55.743Z,18.70
2018-09-09T07:04:26.771Z,18.80
2018-09-09T07:06:58.119Z,18.90
2018-09-09T07:09:29.803Z,19.00
2018-09-09T07:12:00.978Z,19.10
2018-09-09T07:14:32.968Z,19.20
2018-09-09T07:17:04.400Z,19.30
2018-09-09T07:19:35.479Z,19.50
2018-09-09T07:22:06.492Z,19.60
2018-09-09T07:24:37.848Z,19.60
2018-09-09T07:27:09.015Z,19.80
2018-09-09T07:29:40.324Z,19.80
2018-09-09T07:32:11.606Z,19.90
2018-09-09T07:34:42.835Z,20.10
2018-09-09T07:37:13.860Z,20.30
2018-09-09T07:39:45.043Z,20.20
2018-09-09T07:42:16.273Z,20.30
2018-09-09T07:44:47.634Z,20.50
2018-09-09T07:47:19.254Z,20.60
2018-09-09T07:49:50.543Z,20.70
2018-09-09T07:52:21.584Z,20.80
2018-09-09T07:54:52.947Z,21.20
2018-09-09T07:57:24.178Z,21.50
2018-09-09T07:59:55.530Z,21.50
2018-09-09T08:02:26.540Z,21.40
2018-09-09T08:04:57.959Z,21.40
2018-09-09T08:07:29.080Z,21.60
2018-09-09T08:10:00.309Z,21.60
2018-09-09T08:12:32.148Z,21.40
2018-09-09T08:15:03.425Z,21.30
2018-09-09T08:17:34.665Z,21.30
2018-09-09T08:20:05.868Z,21.20
2018-09-09T08:22:37.024Z,21.20
2018-09-09T08:25:08.507Z,21.30
2018-09-09T08:27:39.647Z,21.20
2018-09-09T08:30:12.455Z,21.30
2018-09-09T08:32:43.779Z,21.30
2018-09-09T08:35:15.088Z,21.20
2018-09-09T08:37:46.170Z,21.20
2018-09-09T08:40:18.036Z,21.20
2018-09-09T08:42:49.119Z,21.40
2018-09-09T08:45:20.488Z,21.30
2018-09-09T08:47:51.531Z,21.20
2018-09-09T08:50:22.508Z,21.10
2018-09-09T08:52:54.367Z,21.10
2018-09-09T08:55:25.685Z,21.20
2018-09-09T08:57:56.860Z,21.30
2018-09-09T09:00:28.310Z,21.30
2018-09-09T09:02:59.455Z,21.30
2018-09-09T09:05:30.623Z,21.40
2018-09-09T09:08:01.860Z,21.30
2018-09-09T09:10:32.907Z,21.40
2018-09-09T09:13:04.051Z,21.50
2018-09-09T09:15:35.552Z,21.40
2018-09-09T09:18:06.832Z,21.40
2018-09-09T09:20:38.070Z,21.50
2018-09-09T09:23:09.375Z,21.40
2018-09-09T09:25:45.446Z,21.50
2018-09-09T09:28:17.183Z,21.50
2018-09-09T09:30:48.487Z,21.60
2018-09-09T09:33:19.654Z,21.70
2018-09-09T09:35:51.866Z,21.80
2018-09-09T09:38:23.731Z,22.00
2018-09-09T09:40:54.981Z,22.30
2018-09-09T09:43:26.462Z,22.50
2018-09-09T09:45:57.815Z,22.70
2018-09-09T09:48:29.211Z,22.80
2018-09-09T09:51:00.515Z,23.10
2018-09-09T09:53:32.083Z,23.50
2018-09-09T09:56:03.314Z,23.40
2018-09-09T09:58:36.615Z,23.40
2018-09-09T10:01:08.055Z,23.40
2018-09-09T10:03:39.726Z,23.80
2018-09-09T10:06:12.496Z,23.90
2018-09-09T10:08:44.251Z,23.90
2018-09-09T10:11:15.570Z,24.00
2018-09-09T10:13:46.775Z,24.10
2018-09-09T10:16:18.346Z,24.30
2018-09-09T10:18:49.755Z,24.40
2018-09-09T10:21:21.210Z,24.40
2018-09-09T10:23:52.420Z,24.60
2018-09-09T10:26:23.800Z,24.90
2018-09-09T10:28:55.421Z,24.70
2018-09-09T10:31:26.508Z,25.00
2018-09-09T10:33:57.498Z,25.30
2018-09-09T10:36:28.696Z,25.20
2018-09-09T10:38:59.928Z,25.10
2018-09-09T10:41:31.250Z,25.20
2018-09-09T10:44:02.245Z,25.60
2018-09-09T10:46:33.624Z,25.90
2018-09-09T10:49:04.915Z,25.60
2018-09-09T10:51:36.211Z,25.60
2018-09-09T10:54:07.474Z,26.00
2018-09-09T10:56:38.605Z,27.20
2018-09-09T10:59:10.110Z,27.60
2018-09-09T11:01:41.720Z,28.40
2018-09-09T11:04:13.556Z,28.00
2018-09-09T11:06:44.770Z,28.10
2018-09-09T11:09:15.774Z,27.50
2018-09-09T11:11:47.221Z,27.10
2018-09-09T11:14:18.571Z,27.40
2018-09-09T11:16:50.003Z,28.00
2018-09-09T11:19:21.132Z,28.70
2018-09-09T11:21:52.360Z,29.30
2018-09-09T11:24:23.605Z,28.80
2018-09-09T11:26:55.053Z,29.00
2018-09-09T11:29:26.499Z,29.00
2018-09-09T11:31:57.853Z,29.10
2018-09-09T11:34:29.043Z,29.60
2018-09-09T11:37:00.049Z,30.40
2018-09-09T11:39:31.240Z,30.60
2018-09-09T11:42:02.283Z,30.60
2018-09-09T11:44:33.471Z,30.70
2018-09-09T11:47:04.688Z,30.70
2018-09-09T11:49:36.287Z,30.70
2018-09-09T11:52:07.824Z,30.60
2018-09-09T11:54:39.274Z,30.30
2018-09-09T11:57:10.791Z,30.90
2018-09-09T11:59:42.175Z,31.20
2018-09-09T12:02:13.333Z,31.30
2018-09-09T12:04:44.563Z,31.00
2018-09-09T12:07:15.706Z,31.10
2018-09-09T12:09:46.920Z,31.50
2018-09-09T12:12:18.019Z,30.90
2018-09-09T12:14:49.108Z,30.80
2018-09-09T12:17:20.499Z,31.10
2018-09-09T12:19:51.991Z,30.50
2018-09-09T12:22:23.302Z,30.30
2018-09-09T12:24:54.460Z,30.70
2018-09-09T12:27:26.117Z,31.00
2018-09-09T12:29:57.285Z,31.10
2018-09-09T12:32:28.650Z,31.40
2018-09-09T12:35:00.353Z,30.90
2018-09-09T12:37:31.383Z,30.60
2018-09-09T12:40:02.701Z,30.00
2018-09-09T12:42:33.981Z,30.20
2018-09-09T12:45:09.891Z,29.90
2018-09-09T12:47:46.231Z,29.70
2018-09-09T12:50:17.356Z,30.20
2018-09-09T12:52:48.610Z,31.00
2018-09-09T12:55:19.740Z,30.30
2018-09-09T12:57:50.984Z,29.80
2018-09-09T13:00:22.363Z,28.90
2018-09-09T13:02:53.707Z,28.80
2018-09-09T13:05:24.940Z,30.20
2018-09-09T13:07:55.969Z,31.10
2018-09-09T13:10:27.388Z,30.70
2018-09-09T13:13:03.631Z,31.50
2018-09-09T13:15:34.643Z,31.60
2018-09-09T13:18:05.792Z,32.00
2018-09-09T13:20:36.978Z,31.90
2018-09-09T13:23:08.579Z,32.10
2018-09-09T13:25:39.795Z,31.40
2018-09-09T13:28:11.192Z,31.40
2018-09-09T13:30:42.411Z,31.60
2018-09-09T13:33:13.557Z,31.50
2018-09-09T13:35:44.974Z,32.30
2018-09-09T13:38:16.150Z,31.80
2018-09-09T13:40:47.519Z,31.30
2018-09-09T13:43:18.543Z,32.30
2018-09-09T13:45:49.955Z,32.00
2018-09-09T13:48:21.164Z,32.00
2018-09-09T13:50:52.448Z,31.60
2018-09-09T13:53:23.589Z,30.60
2018-09-09T13:55:54.843Z,29.20
2018-09-09T13:58:25.899Z,28.90
2018-09-09T14:00:57.212Z,28.30
2018-09-09T14:03:28.483Z,28.10
2018-09-09T14:05:59.632Z,28.40
2018-09-09T14:08:30.801Z,28.30
2018-09-09T14:11:02.020Z,27.90
2018-09-09T14:13:33.190Z,27.80
2018-09-09T14:16:04.231Z,28.20
2018-09-09T14:18:35.600Z,28.00
2018-09-09T14:21:07.036Z,28.10
2018-09-09T14:23:38.963Z,28.30
2018-09-09T14:26:10.312Z,28.50
2018-09-09T14:28:41.502Z,29.00
2018-09-09T14:31:12.701Z,29.00
2018-09-09T14:33:45.297Z,29.20
2018-09-09T14:36:16.459Z,29.70
2018-09-09T14:38:47.500Z,29.30
2018-09-09T14:41:18.846Z,28.50
2018-09-09T14:43:50.523Z,28.30
2018-09-09T14:46:21.852Z,28.30
2018-09-09T14:48:53.302Z,28.10
2018-09-09T14:51:24.653Z,27.90
2018-09-09T14:53:56.616Z,28.10
2018-09-09T14:56:27.963Z,28.00
2018-09-09T14:58:59.312Z,27.90
2018-09-09T15:01:30.574Z,27.90
2018-09-09T15:04:01.914Z,27.80
2018-09-09T15:06:32.963Z,27.90
2018-09-09T15:09:04.810Z,28.10
2018-09-09T15:11:36.111Z,27.80
2018-09-09T15:14:07.211Z,27.60
2018-09-09T15:16:38.781Z,27.40
2018-09-09T15:19:10.077Z,27.30
2018-09-09T15:21:41.247Z,27.20
2018-09-09T15:24:12.304Z,27.20
2018-09-09T15:26:43.584Z,27.20
2018-09-09T15:29:14.580Z,27.20
2018-09-09T15:31:45.824Z,27.40
2018-09-09T15:34:16.918Z,27.50
2018-09-09T15:36:48.039Z,27.70
2018-09-09T15:45:34.667Z,27.60
2018-09-09T15:53:02.332Z,27.50
2018-09-09T16:07:39.185Z,27.50
2018-09-09T16:16:55.774Z,27.70
2018-09-09T16:20:52.078Z,27.80
2018-09-09T16:38:02.956Z,28.10
2018-09-09T16:40:34.179Z,27.80
2018-09-09T16:43:05.238Z,27.50
2018-09-09T16:45:37.075Z,27.30
2018-09-09T16:48:08.223Z,27.50
2018-09-09T16:50:39.389Z,27.30
2018-09-09T16:53:10.564Z,27.10
2018-09-09T16:55:41.598Z,27.20
2018-09-09T16:58:12.971Z,27.00
2018-09-09T17:00:44.324Z,26.90
2018-09-09T17:03:15.519Z,27.00
2018-09-09T17:05:47.008Z,26.80
2018-09-09T17:08:18.352Z,26.80
2018-09-09T17:10:49.508Z,26.80
2018-09-09T17:13:20.507Z,26.80
2018-09-09T17:15:51.749Z,26.60
2018-09-09T17:18:23.355Z,26.60
2018-09-09T17:20:54.480Z,26.50
2018-09-09T17:23:26.159Z,26.40
2018-09-09T17:25:58.104Z,26.30
2018-09-09T17:28:29.453Z,26.20
2018-09-09T17:31:01.075Z,26.10
2018-09-09T17:33:32.380Z,26.00
2018-09-09T17:36:03.395Z,25.90
2018-09-09T17:38:34.912Z,25.90
2018-09-09T17:41:06.195Z,25.90
2018-09-09T17:43:37.825Z,25.90
2018-09-09T17:46:09.127Z,25.80
2018-09-09T17:48:40.566Z,25.70
2018-09-09T17:51:11.719Z,25.70
2018-09-09T17:53:42.883Z,25.50
2018-09-09T17:56:13.884Z,25.50
2018-09-09T18:04:53.463Z,25.40
2018-09-09T18:08:49.840Z,25.30
2018-09-09T18:11:27.814Z,25.10
2018-09-09T18:13:58.975Z,25.10
2018-09-09T18:16:30.147Z,25.00
2018-09-09T18:19:01.561Z,24.90
2018-09-09T18:21:33.004Z,24.80
2018-09-09T18:24:04.308Z,24.90
2018-09-09T18:28:46.286Z,24.80
2018-09-09T18:38:44.589Z,24.60
2018-09-09T18:45:52.591Z,24.60
2018-09-09T18:49:59.460Z,24.50
2018-09-09T19:18:29.079Z,23.90
2018-09-09T19:22:46.410Z,23.90
2018-09-09T19:25:34.273Z,23.40
2018-09-09T19:28:05.633Z,23.30
2018-09-09T19:30:37.301Z,23.30
2018-09-09T19:33:09.004Z,23.30
2018-09-09T19:35:40.387Z,23.30
2018-09-09T19:38:12.045Z,23.30
2018-09-09T19:40:43.391Z,23.30
2018-09-09T19:43:14.801Z,23.20
2018-09-09T19:45:45.951Z,23.20
2018-09-09T19:48:17.608Z,23.20
2018-09-09T19:50:48.731Z,23.20
2018-09-09T19:53:20.099Z,23.20
2018-09-09T19:55:52.162Z,23.20
2018-09-09T19:58:23.555Z,23.20
2018-09-09T20:00:54.867Z,23.20
2018-09-09T20:03:26.096Z,23.20
2018-09-09T20:05:57.235Z,23.20
2018-09-09T20:08:28.432Z,23.20
2018-09-09T20:10:59.623Z,23.10
2018-09-09T20:13:30.844Z,23.10
2018-09-09T20:16:02.189Z,23.20
2018-09-09T20:18:33.685Z,23.20
2018-09-09T20:21:04.971Z,23.20
2018-09-09T20:23:36.140Z,23.10
2018-09-09T20:26:07.823Z,23.10
2018-09-09T20:28:39.700Z,23.10
2018-09-09T20:31:10.922Z,23.10
2018-09-09T20:33:42.296Z,23.10
2018-09-09T20:36:13.490Z,22.90
2018-09-09T20:38:44.702Z,23.00
2018-09-09T20:41:16.140Z,22.90
2018-09-09T20:43:47.471Z,22.90
2018-09-09T20:46:18.952Z,22.90
2018-09-09T20:48:50.528Z,22.90
2018-09-09T20:51:21.635Z,23.00
2018-09-09T20:53:52.815Z,22.90
2018-09-09T20:56:24.029Z,22.80
2018-09-09T20:58:55.248Z,22.80
2018-09-09T21:01:26.559Z,22.80
2018-09-09T21:03:57.596Z,22.70
2018-09-09T21:06:28.962Z,22.90
2018-09-09T21:09:00.638Z,22.90
2018-09-09T21:11:31.746Z,22.80
2018-09-09T21:14:02.915Z,22.80
2018-09-09T21:16:34.546Z,22.80
2018-09-09T21:19:05.553Z,22.70
2018-09-09T21:21:36.939Z,22.60
2018-09-09T21:24:08.297Z,22.60
2018-09-09T21:26:39.497Z,22.50
2018-09-09T21:29:10.676Z,22.40
2018-09-09T21:31:48.478Z,22.30
2018-09-09T21:34:20.289Z,22.20
2018-09-09T21:36:51.531Z,22.30
2018-09-09T21:39:23.036Z,22.30
2018-09-09T21:41:54.286Z,22.20
2018-09-09T21:44:25.296Z,22.20
2018-09-09T21:46:57.280Z,22.20
2018-09-09T21:49:28.639Z,22.20
2018-09-09T21:51:59.691Z,22.10
2018-09-09T21:54:31.047Z,22.10
2018-09-09T21:57:02.271Z,22.00
2018-09-09T21:59:34.234Z,22.00
2018-09-09T22:02:09.441Z,21.90
2018-09-09T22:04:40.849Z,21.90
2018-09-09T22:07:13.367Z,21.90
2018-09-09T22:09:45.180Z,21.90
2018-09-09T22:12:16.473Z,22.00
2018-09-09T22:14:47.516Z,21.90
2018-09-09T22:17:18.657Z,21.80
2018-09-09T22:19:49.854Z,21.80
2018-09-09T22:22:21.086Z,21.70
2018-09-09T22:24:52.469Z,21.70
2018-09-09T22:27:24.096Z,21.70
2018-09-09T22:29:55.199Z,21.70
2018-09-09T22:32:26.199Z,21.70
2018-09-09T22:34:57.527Z,21.60
2018-09-09T22:37:28.775Z,21.50
2018-09-09T22:40:00.211Z,21.50
2018-09-09T22:42:31.363Z,21.40
2018-09-09T22:45:02.519Z,21.20
2018-09-09T22:47:33.775Z,21.10
2018-09-09T22:50:05.229Z,21.20
2018-09-09T22:52:36.505Z,21.20
2018-09-09T22:55:08.431Z,21.10
2018-09-09T22:57:39.971Z,20.90
2018-09-09T23:00:11.591Z,20.80
2018-09-09T23:02:42.874Z,20.80
2018-09-09T23:05:14.226Z,20.80
2018-09-09T23:07:45.228Z,20.80
2018-09-09T23:10:16.610Z,20.80
2018-09-09T23:12:47.846Z,20.70
2018-09-09T23:15:23.246Z,20.80
2018-09-09T23:17:54.798Z,20.80
2018-09-09T23:20:26.119Z,21.00
2018-09-09T23:22:57.113Z,20.90
2018-09-09T23:25:28.567Z,20.70
2018-09-09T23:27:59.973Z,20.50
2018-09-09T23:30:31.280Z,20.40
2018-09-09T23:33:02.465Z,20.40
2018-09-09T23:35:33.822Z,20.40
2018-09-09T23:38:05.049Z,20.30
2018-09-09T23:40:36.043Z,20.30
2018-09-09T23:43:07.218Z,20.30
2018-09-09T23:45:38.430Z,20.20
2018-09-09T23:48:09.815Z,20.20
2018-09-09T23:50:41.487Z,20.10
2018-09-09T23:53:12.824Z,20.10
2018-09-09T23:55:44.232Z,20.10
2018-09-09T23:58:15.518Z,20.10
